Time;durP1;ratioP1;P1;durP2;ratioP2;P2;SDS_P1;SDS_P2;PMS_P1;PMS_P2;Temp;Humidity;BMP_temperature;BMP_pressure;BME280_temperature;BME280_humidity;BME280_pressure;Samples;Min_cycle;Max_cycle;Signal;HPM_P1;HPM_P2
2021/08/07 00:00:16;;;;;;;16.80;14.43;;;;;;;-145.71;100.00;60690.53;5018775;28;20033;-81
2021/08/07 00:02:41;;;;;;;22.52;18.05;;;;;;;-145.71;100.00;60690.53;5024346;28;20111;-81
2021/08/07 00:05:07;;;;;;;19.73;14.77;;;;;;;-145.71;100.00;60690.53;4985142;28;20358;-80
2021/08/07 00:07:34;;;;;;;20.92;14.93;;;;;;;-145.71;100.00;60690.53;5015819;28;20640;-80
2021/08/07 00:10:00;;;;;;;29.33;19.38;;;;;;;-145.71;100.00;60690.53;4994978;28;20434;-80
2021/08/07 00:12:25;;;;;;;17.08;13.10;;;;;;;-145.71;100.00;60690.53;5018718;28;20017;-81
2021/08/07 00:14:51;;;;;;;30.30;19.88;;;;;;;-145.71;100.00;60690.53;4992273;28;20037;-81
2021/08/07 00:17:17;;;;;;;15.05;11.50;;;;;;;-145.71;100.00;60690.53;5024504;28;20422;-81
2021/08/07 00:19:42;;;;;;;14.07;12.52;;;;;;;-145.71;100.00;60690.53;5019262;28;20124;-81
2021/08/07 00:22:08;;;;;;;14.88;11.25;;;;;;;-145.71;100.00;60690.53;5016952;28;20398;-81
2021/08/07 00:24:33;;;;;;;19.00;11.82;;;;;;;-145.71;100.00;60690.53;5024689;28;20471;-81
2021/08/07 00:26:59;;;;;;;19.60;16.90;;;;;;;-145.71;100.00;60690.53;5015730;28;20037;-81
2021/08/07 00:29:24;;;;;;;33.25;19.33;;;;;;;-145.71;100.00;60690.53;5026476;28;20030;-81
2021/08/07 00:31:49;;;;;;;15.60;12.30;;;;;;;-145.71;100.00;60690.53;5021590;28;20025;-81
2021/08/07 00:34:15;;;;;;;22.83;15.98;;;;;;;-145.71;100.00;60690.53;5027158;28;20045;-80
2021/08/07 00:36:41;;;;;;;15.00;10.68;;;;;;;-145.71;100.00;60690.53;5017163;28;20041;-80
2021/08/07 00:39:06;;;;;;;14.80;11.23;;;;;;;-145.71;100.00;60690.53;5026219;28;20037;-81
2021/08/07 00:41:32;;;;;;;21.55;10.63;;;;;;;-145.71;100.00;60690.53;5018103;28;20022;-81
2021/08/07 00:44:00;;;;;;;26.20;10.70;;;;;;;-145.71;100.00;60690.53;5018273;28;20428;-80
2021/08/07 00:46:25;;;;;;;24.20;15.73;;;;;;;-145.71;100.00;60690.53;5006869;28;20025;-81
2021/08/07 00:48:50;;;;;;;17.38;12.48;;;;;;;-145.71;100.00;60690.53;5012667;28;20545;-81
2021/08/07 00:51:17;;;;;;;16.15;10.52;;;;;;;-145.71;100.00;60690.53;5010067;28;20504;-80
2021/08/07 00:53:42;;;;;;;11.15;9.52;;;;;;;-145.71;100.00;60690.53;5001011;28;20025;-81
2021/08/07 00:56:07;;;;;;;24.77;13.48;;;;;;;-145.71;100.00;60690.53;5017038;28;20505;-81
2021/08/07 00:58:33;;;;;;;12.98;10.07;;;;;;;-145.71;100.00;60690.53;5024843;28;20306;-80
2021/08/07 01:01:03;;;;;;;19.70;12.20;;;;;;;-145.71;100.00;60690.53;5012508;28;20053;-80
2021/08/07 01:03:45;;;;;;;18.00;10.68;;;;;;;-145.71;100.00;60690.53;5021886;28;20025;-81
2021/08/07 01:06:38;;;;;;;21.50;15.55;;;;;;;-145.71;100.00;60690.53;5021825;28;20109;-80
2021/08/07 01:09:15;;;;;;;17.35;10.65;;;;;;;-145.71;100.00;60690.53;4996752;28;20464;-81
2021/08/07 01:11:50;;;;;;;17.15;14.40;;;;;;;-145.71;100.00;60690.53;5020669;28;20082;-81
2021/08/07 01:14:24;;;;;;;21.80;13.40;;;;;;;-145.71;100.00;60690.53;5023509;28;20381;-81
2021/08/07 01:16:53;;;;;;;18.90;13.15;;;;;;;-145.71;100.00;60690.53;5015638;28;20030;-81
2021/08/07 01:19:20;;;;;;;24.40;13.77;;;;;;;-145.71;100.00;60690.53;5027313;28;20032;-81
2021/08/07 01:21:50;;;;;;;15.20;10.30;;;;;;;-145.71;100.00;60690.53;5020587;28;20029;-81
2021/08/07 01:24:26;;;;;;;13.98;10.35;;;;;;;-145.71;100.00;60690.53;5015365;28;20049;-80
2021/08/07 01:26:55;;;;;;;15.40;11.52;;;;;;;-145.71;100.00;60690.53;5025548;28;20371;-81
2021/08/07 01:29:21;;;;;;;29.45;15.30;;;;;;;-145.71;100.00;60690.53;4991388;28;20080;-81
2021/08/07 01:31:48;;;;;;;14.85;9.63;;;;;;;-145.71;100.00;60690.53;5000341;28;20029;-80
2021/08/07 01:34:17;;;;;;;14.48;10.75;;;;;;;-145.71;100.00;60690.53;5024563;28;20036;-81
2021/08/07 01:36:47;;;;;;;15.00;10.82;;;;;;;-145.71;100.00;60690.53;5013142;28;20433;-80
2021/08/07 01:39:13;;;;;;;13.07;9.35;;;;;;;-145.71;100.00;60690.53;5029680;28;20059;-81
2021/08/07 01:41:38;;;;;;;20.98;10.88;;;;;;;-145.71;100.00;60690.53;5022382;28;20456;-80
2021/08/07 01:44:04;;;;;;;21.08;12.90;;;;;;;-145.71;100.00;60690.53;5009688;28;20037;-81
2021/08/07 01:47:04;;;;;;;17.92;13.32;;;;;;;-145.71;100.00;60690.53;5027343;28;20025;-81
2021/08/07 01:49:37;;;;;;;17.33;9.85;;;;;;;-145.71;100.00;60690.53;4986480;28;20044;-80
2021/08/07 01:52:08;;;;;;;21.45;12.27;;;;;;;-145.71;100.00;60690.53;5000849;28;20025;-81
2021/08/07 01:54:37;;;;;;;9.82;8.75;;;;;;;-145.71;100.00;60690.53;5027061;28;20029;-81
2021/08/07 01:57:06;;;;;;;24.77;12.88;;;;;;;-145.71;100.00;60690.53;4997298;28;20032;-81
2021/08/07 01:59:34;;;;;;;17.63;11.27;;;;;;;-145.71;100.00;60690.53;5005118;28;20022;-81
2021/08/07 02:02:00;;;;;;;18.40;9.27;;;;;;;-145.71;100.00;60690.53;5021187;28;20417;-80
2021/08/07 02:04:27;;;;;;;20.10;10.80;;;;;;;-145.71;100.00;60690.53;5015339;28;20452;-80
2021/08/07 02:06:52;;;;;;;12.93;9.20;;;;;;;-145.71;100.00;60690.53;5025992;28;20083;-80
2021/08/07 02:09:19;;;;;;;19.95;9.73;;;;;;;-145.71;100.00;60690.53;5019004;28;20033;-81
2021/08/07 02:11:45;;;;;;;13.43;10.63;;;;;;;-145.71;100.00;60690.53;5034042;28;20033;-81
2021/08/07 02:14:11;;;;;;;15.73;9.13;;;;;;;-145.71;100.00;60690.53;5019577;28;20166;-81
2021/08/07 02:16:39;;;;;;;13.73;9.02;;;;;;;-145.71;100.00;60690.53;5026691;28;20029;-80
2021/08/07 02:19:05;;;;;;;25.15;8.85;;;;;;;-145.71;100.00;60690.53;4998211;28;20488;-81
2021/08/07 02:21:30;;;;;;;14.25;9.95;;;;;;;-145.71;100.00;60690.53;5022646;28;20026;-80
2021/08/07 02:23:56;;;;;;;10.80;8.43;;;;;;;-145.71;100.00;60690.53;5020013;28;20049;-80
2021/08/07 02:26:24;;;;;;;11.82;10.27;;;;;;;-145.71;100.00;60690.53;4997467;28;20419;-80
2021/08/07 02:28:50;;;;;;;14.40;10.23;;;;;;;-145.71;100.00;60690.53;5028306;28;20036;-81
2021/08/07 02:31:17;;;;;;;15.32;10.20;;;;;;;-145.71;100.00;60690.53;5001391;28;20087;-81
2021/08/07 02:33:43;;;;;;;17.05;12.32;;;;;;;-145.71;100.00;60690.53;5027212;28;20079;-81
2021/08/07 02:36:11;;;;;;;16.42;11.48;;;;;;;-145.71;100.00;60690.53;5017567;28;20030;-81
2021/08/07 02:38:37;;;;;;;18.15;10.65;;;;;;;-145.71;100.00;60690.53;4991667;28;20061;-81
2021/08/07 02:41:02;;;;;;;13.70;12.25;;;;;;;-145.71;100.00;60690.53;5025352;28;20049;-81
2021/08/07 02:43:29;;;;;;;18.77;9.98;;;;;;;-145.71;100.00;60690.53;5015878;28;20084;-81
2021/08/07 02:45:55;;;;;;;15.88;11.82;;;;;;;-145.71;100.00;60690.53;5000963;28;20181;-80
2021/08/07 02:48:23;;;;;;;16.10;10.18;;;;;;;-145.71;100.00;60690.53;5023324;28;20033;-81
2021/08/07 02:50:49;;;;;;;14.15;10.65;;;;;;;-145.71;100.00;60690.53;5028588;28;20064;-81
2021/08/07 02:53:15;;;;;;;23.73;13.68;;;;;;;-145.71;100.00;60690.53;5018886;28;20047;-81
2021/08/07 02:55:41;;;;;;;12.75;10.77;;;;;;;-145.71;100.00;60690.53;5023171;28;20456;-81
2021/08/07 02:58:07;;;;;;;19.77;15.27;;;;;;;-145.71;100.00;60690.53;5022266;28;20039;-81
2021/08/07 03:00:34;;;;;;;22.60;16.13;;;;;;;-145.71;100.00;60690.53;5014022;28;20446;-80
2021/08/07 03:03:00;;;;;;;20.95;13.60;;;;;;;-145.71;100.00;60690.53;5024730;28;20500;-81
2021/08/07 03:05:25;;;;;;;16.63;12.30;;;;;;;-145.71;100.00;60690.53;5016585;28;20037;-81
2021/08/07 03:07:52;;;;;;;15.63;10.98;;;;;;;-145.71;100.00;60690.53;5017940;28;20037;-81
2021/08/07 03:10:17;;;;;;;15.95;13.07;;;;;;;-145.71;100.00;60690.53;5021767;28;20055;-81
2021/08/07 03:12:44;;;;;;;20.48;14.85;;;;;;;-145.71;100.00;60690.53;4993953;28;20033;-81
2021/08/07 03:15:11;;;;;;;28.15;18.60;;;;;;;-145.71;100.00;60690.53;5028641;28;20026;-82
2021/08/07 03:17:37;;;;;;;22.27;16.90;;;;;;;-145.71;100.00;60690.53;5001727;28;20078;-82
2021/08/07 03:20:04;;;;;;;20.35;12.50;;;;;;;-145.71;100.00;60690.53;5019691;28;20052;-81
2021/08/07 03:22:29;;;;;;;20.73;14.82;;;;;;;-145.71;100.00;60690.53;5024601;28;20087;-81
2021/08/07 03:24:55;;;;;;;16.67;14.45;;;;;;;-145.71;100.00;60690.53;4993908;28;20034;-81
2021/08/07 03:27:20;;;;;;;23.63;13.50;;;;;;;-145.71;100.00;60690.53;5022633;28;20030;-81
2021/08/07 03:29:46;;;;;;;18.27;14.23;;;;;;;-145.71;100.00;60690.53;5016391;28;20025;-81
2021/08/07 03:32:11;;;;;;;32.20;17.45;;;;;;;-145.71;100.00;60690.53;4997950;28;20025;-81
2021/08/07 03:34:36;;;;;;;20.63;15.75;;;;;;;-145.71;100.00;60690.53;5010850;28;20025;-81
2021/08/07 03:37:02;;;;;;;23.63;16.92;;;;;;;-145.71;100.00;60690.53;5028199;28;20389;-81
2021/08/07 03:39:27;;;;;;;21.67;16.77;;;;;;;-145.71;100.00;60690.53;5017359;28;20040;-82
2021/08/07 03:41:53;;;;;;;16.17;13.50;;;;;;;-145.71;100.00;60690.53;5001367;28;20113;-81
2021/08/07 03:44:18;;;;;;;46.30;25.98;;;;;;;-145.71;100.00;60690.53;5023176;28;20086;-81
2021/08/07 03:46:44;;;;;;;19.83;15.05;;;;;;;-145.71;100.00;60690.53;5012938;28;20542;-81
2021/08/07 03:49:09;;;;;;;17.05;15.35;;;;;;;-145.71;100.00;60690.53;5031486;28;20539;-81
2021/08/07 03:51:35;;;;;;;18.52;14.07;;;;;;;-145.71;100.00;60690.53;5030580;28;20026;-81
2021/08/07 03:54:00;;;;;;;36.08;23.52;;;;;;;-145.71;100.00;60690.53;5014295;28;20069;-81
2021/08/07 03:56:25;;;;;;;33.65;23.33;;;;;;;-145.71;100.00;60690.53;5016175;28;20025;-81
2021/08/07 03:58:51;;;;;;;27.17;20.83;;;;;;;-145.71;100.00;60690.53;5032984;28;20509;-81
2021/08/07 04:01:16;;;;;;;51.40;29.67;;;;;;;-145.71;100.00;60690.53;5031930;28;20044;-81
2021/08/07 04:03:41;;;;;;;37.60;24.38;;;;;;;-145.71;100.00;60690.53;5012454;28;20485;-81
2021/08/07 04:06:07;;;;;;;26.60;21.70;;;;;;;-145.71;100.00;60690.53;5030857;28;20394;-81
2021/08/07 04:08:32;;;;;;;36.33;24.20;;;;;;;-145.71;100.00;60690.53;5012574;28;20172;-81
2021/08/07 04:10:57;;;;;;;34.03;24.13;;;;;;;-145.71;100.00;60690.53;5030146;28;20041;-81
2021/08/07 04:13:23;;;;;;;31.80;23.55;;;;;;;-145.71;100.00;60690.53;5030943;28;20110;-81
2021/08/07 04:15:48;;;;;;;46.65;30.00;;;;;;;-145.71;100.00;60690.53;5011993;28;20025;-81
2021/08/07 04:18:13;;;;;;;69.22;37.17;;;;;;;-145.71;100.00;60690.53;5030216;28;20033;-81
2021/08/07 04:20:38;;;;;;;34.45;26.70;;;;;;;-145.71;100.00;60690.53;5012216;28;20491;-81
2021/08/07 04:23:05;;;;;;;40.08;28.02;;;;;;;-145.71;100.00;60690.53;5032206;28;20053;-80
2021/08/07 04:25:31;;;;;;;32.90;22.45;;;;;;;-145.71;100.00;60690.53;5034440;28;20025;-81
2021/08/07 04:27:56;;;;;;;50.60;31.65;;;;;;;-145.71;100.00;60690.53;5033752;28;20116;-81
2021/08/07 04:30:21;;;;;;;39.63;27.65;;;;;;;-145.71;100.00;60690.53;5014493;28;20440;-81
2021/08/07 04:32:47;;;;;;;24.42;19.95;;;;;;;-145.71;100.00;60690.53;5033400;28;20030;-81
2021/08/07 04:35:12;;;;;;;33.17;25.60;;;;;;;-145.71;100.00;60690.53;5031788;28;20025;-82
2021/08/07 04:37:49;;;;;;;23.58;20.05;;;;;;;-145.71;100.00;60690.53;5031392;28;20044;-81
2021/08/07 04:40:15;;;;;;;30.00;24.58;;;;;;;-145.71;100.00;60690.53;5032470;28;20523;-81
2021/08/07 04:42:41;;;;;;;47.80;29.35;;;;;;;-145.71;100.00;60690.53;5031866;28;20033;-80
2021/08/07 04:45:06;;;;;;;23.75;20.75;;;;;;;-145.71;100.00;60690.53;5031827;28;20036;-81
2021/08/07 04:47:32;;;;;;;32.90;24.90;;;;;;;-145.71;100.00;60690.53;5031036;28;20029;-81
2021/08/07 04:49:57;;;;;;;44.92;26.58;;;;;;;-145.71;100.00;60690.53;5030506;28;20074;-80
2021/08/07 04:52:22;;;;;;;27.15;19.80;;;;;;;-145.71;100.00;60690.53;5031761;28;20021;-81
2021/08/07 04:54:47;;;;;;;27.67;20.35;;;;;;;-145.71;100.00;60690.53;5033583;28;20025;-81
2021/08/07 04:57:13;;;;;;;39.85;27.13;;;;;;;-145.71;100.00;60690.53;5034260;28;20032;-81
2021/08/07 04:59:38;;;;;;;42.22;28.00;;;;;;;-145.71;100.00;60690.53;5013964;28;20159;-81
2021/08/07 05:02:03;;;;;;;31.77;23.92;;;;;;;-145.71;100.00;60690.53;5014070;28;20029;-81
2021/08/07 05:04:28;;;;;;;31.35;24.27;;;;;;;-145.71;100.00;60690.53;5031644;28;20033;-81
2021/08/07 05:06:54;;;;;;;27.60;21.45;;;;;;;-145.71;100.00;60690.53;5030753;28;20215;-81
2021/08/07 05:09:19;;;;;;;30.27;20.77;;;;;;;-145.71;100.00;60690.53;5011994;28;20029;-80
2021/08/07 05:11:44;;;;;;;22.17;18.23;;;;;;;-145.71;100.00;60690.53;5011964;28;20032;-81
2021/08/07 05:14:10;;;;;;;29.00;24.20;;;;;;;-145.71;100.00;60690.53;5035693;28;20021;-81
2021/08/07 05:16:35;;;;;;;54.92;33.47;;;;;;;-145.71;100.00;60690.53;5037645;28;20034;-81
2021/08/07 05:19:00;;;;;;;27.00;21.45;;;;;;;-145.71;100.00;60690.53;5034442;28;20504;-81
2021/08/07 05:21:25;;;;;;;24.65;20.50;;;;;;;-145.71;100.00;60690.53;5020509;28;20030;-80
2021/08/07 05:23:51;;;;;;;33.13;23.02;;;;;;;-145.71;100.00;60690.53;5035901;28;20104;-81
2021/08/07 05:26:16;;;;;;;32.55;24.80;;;;;;;-145.71;100.00;60690.53;5035201;28;20112;-81
2021/08/07 05:28:42;;;;;;;26.70;23.83;;;;;;;-145.71;100.00;60690.53;5016883;28;20033;-81
2021/08/07 05:31:08;;;;;;;27.85;22.67;;;;;;;-145.71;100.00;60690.53;5034229;28;20053;-81
2021/08/07 05:33:33;;;;;;;22.60;19.20;;;;;;;-145.71;100.00;60690.53;5033674;28;20453;-81
2021/08/07 05:35:58;;;;;;;37.80;27.17;;;;;;;-145.71;100.00;60690.53;5016785;28;20108;-81
2021/08/07 05:38:24;;;;;;;27.80;21.67;;;;;;;-145.71;100.00;60690.53;5016483;28;20515;-80
2021/08/07 05:40:50;;;;;;;24.45;21.90;;;;;;;-145.71;100.00;60690.53;5016350;28;20121;-81
2021/08/07 05:43:15;;;;;;;32.45;24.77;;;;;;;-145.71;100.00;60690.53;5018740;28;20088;-81
2021/08/07 05:45:40;;;;;;;23.48;19.83;;;;;;;-145.71;100.00;60690.53;5017694;28;20033;-81
2021/08/07 05:48:06;;;;;;;39.85;26.52;;;;;;;-145.71;100.00;60690.53;5016498;28;20484;-81
2021/08/07 05:50:34;;;;;;;35.70;19.00;;;;;;;-145.71;100.00;60690.53;5033951;28;20401;-81
2021/08/07 05:52:59;;;;;;;22.02;19.73;;;;;;;-145.71;100.00;60690.53;5033894;28;20113;-81
2021/08/07 05:55:24;;;;;;;21.38;17.40;;;;;;;-145.71;100.00;60690.53;5033893;28;20112;-81
2021/08/07 05:57:50;;;;;;;22.35;18.30;;;;;;;-145.71;100.00;60690.53;5033190;28;20080;-80
2021/08/07 06:00:15;;;;;;;26.17;18.02;;;;;;;-145.71;100.00;60690.53;5033233;28;20071;-80
2021/08/07 06:02:41;;;;;;;22.23;19.63;;;;;;;-145.71;100.00;60690.53;5032409;28;20030;-81
2021/08/07 06:05:07;;;;;;;21.98;19.63;;;;;;;-145.71;100.00;60690.53;5032336;28;20033;-81
2021/08/07 06:07:32;;;;;;;25.73;22.88;;;;;;;-145.71;100.00;60690.53;5032535;28;20026;-81
2021/08/07 06:09:57;;;;;;;23.98;21.13;;;;;;;-145.71;100.00;60690.53;5036582;28;20381;-81
2021/08/07 06:12:23;;;;;;;23.38;18.27;;;;;;;-145.71;100.00;60690.53;5034106;28;20033;-81
2021/08/07 06:14:48;;;;;;;31.80;20.52;;;;;;;-145.71;100.00;60690.53;5033676;28;20441;-81
2021/08/07 06:17:13;;;;;;;35.85;23.70;;;;;;;-145.71;100.00;60690.53;5032692;28;20045;-81
2021/08/07 06:19:39;;;;;;;21.55;17.25;;;;;;;-145.71;100.00;60690.53;5014478;28;20052;-81
2021/08/07 06:22:04;;;;;;;30.83;22.27;;;;;;;-145.71;100.00;60690.53;5032617;28;20056;-81
2021/08/07 06:24:30;;;;;;;25.25;20.50;;;;;;;-145.71;100.00;60690.53;5032364;28;20056;-81
2021/08/07 06:26:55;;;;;;;22.50;18.17;;;;;;;-145.71;100.00;60690.53;5032284;28;20051;-81
2021/08/07 06:29:21;;;;;;;19.33;15.93;;;;;;;-145.71;100.00;60690.53;5031800;28;20033;-81
2021/08/07 06:31:46;;;;;;;25.80;20.55;;;;;;;-145.71;100.00;60690.53;5015537;28;20116;-81
2021/08/07 06:34:11;;;;;;;27.88;20.05;;;;;;;-145.71;100.00;60690.53;5033476;28;20503;-81
2021/08/07 06:36:37;;;;;;;18.70;16.45;;;;;;;-145.71;100.00;60690.53;5035803;28;20033;-81
2021/08/07 06:39:03;;;;;;;23.25;18.42;;;;;;;-145.71;100.00;60690.53;5033835;28;20104;-81
2021/08/07 06:41:29;;;;;;;23.67;15.48;;;;;;;-145.71;100.00;60690.53;5014997;28;20052;-81
2021/08/07 06:43:54;;;;;;;18.85;14.70;;;;;;;-145.71;100.00;60690.53;5014572;28;20025;-81
2021/08/07 06:46:19;;;;;;;22.40;16.45;;;;;;;-145.71;100.00;60690.53;5032253;28;20082;-81
2021/08/07 06:48:45;;;;;;;18.92;13.65;;;;;;;-145.71;100.00;60690.53;5013707;28;20076;-81
2021/08/07 06:51:10;;;;;;;24.50;15.30;;;;;;;-145.71;100.00;60690.53;5033342;28;20025;-81
2021/08/07 06:53:37;;;;;;;24.17;17.20;;;;;;;-145.71;100.00;60690.53;5034838;28;20044;-81
2021/08/07 06:56:03;;;;;;;16.08;14.18;;;;;;;-145.71;100.00;60690.53;5035554;28;20079;-81
2021/08/07 06:58:28;;;;;;;20.45;17.33;;;;;;;-145.71;100.00;60690.53;5033402;28;20053;-81
2021/08/07 07:00:53;;;;;;;18.30;15.40;;;;;;;-145.71;100.00;60690.53;5032695;28;20060;-81
2021/08/07 07:03:19;;;;;;;21.35;16.83;;;;;;;-145.71;100.00;60690.53;5013644;28;20058;-81
2021/08/07 07:05:44;;;;;;;21.75;17.10;;;;;;;-145.71;100.00;60690.53;5014933;28;20041;-81
2021/08/07 07:08:09;;;;;;;26.75;17.58;;;;;;;-145.71;100.00;60690.53;5032954;28;20500;-81
2021/08/07 07:10:35;;;;;;;23.38;17.42;;;;;;;-145.71;100.00;60690.53;5032975;28;20039;-82
2021/08/07 07:13:00;;;;;;;22.90;15.35;;;;;;;-145.71;100.00;60690.53;5015747;28;20079;-81
2021/08/07 07:15:26;;;;;;;31.80;21.83;;;;;;;-145.71;100.00;60690.53;5014520;28;20033;-80
2021/08/07 07:17:52;;;;;;;17.30;15.60;;;;;;;-145.71;100.00;60690.53;5032218;28;20488;-81
2021/08/07 07:20:18;;;;;;;22.42;19.13;;;;;;;-145.71;100.00;60690.53;5031384;28;20075;-81
2021/08/07 07:22:44;;;;;;;19.75;17.08;;;;;;;-145.71;100.00;60690.53;5032157;28;20052;-82
2021/08/07 07:25:11;;;;;;;22.52;18.42;;;;;;;-145.71;100.00;60690.53;5015338;28;20025;-81
2021/08/07 07:27:37;;;;;;;18.02;15.65;;;;;;;-145.71;100.00;60690.53;5014048;28;20057;-81
2021/08/07 07:30:03;;;;;;;16.88;14.27;;;;;;;-145.71;100.00;60690.53;5031474;28;20077;-81
2021/08/07 07:32:29;;;;;;;20.90;16.10;;;;;;;-145.71;100.00;60690.53;5031061;28;20036;-81
2021/08/07 07:34:54;;;;;;;19.02;14.57;;;;;;;-145.71;100.00;60690.53;5030032;28;20033;-81
2021/08/07 07:37:19;;;;;;;21.42;16.15;;;;;;;-145.71;100.00;60690.53;5012643;28;20035;-81
2021/08/07 07:39:45;;;;;;;14.98;13.20;;;;;;;-145.71;100.00;60690.53;5034036;28;20037;-81
2021/08/07 07:42:10;;;;;;;18.27;13.38;;;;;;;-145.71;100.00;60690.53;5032979;28;20064;-81
2021/08/07 07:44:36;;;;;;;15.10;12.82;;;;;;;-145.71;100.00;60690.53;5032359;28;20033;-81
2021/08/07 07:47:01;;;;;;;14.05;12.70;;;;;;;-145.71;100.00;60690.53;5013293;28;20030;-81
2021/08/07 07:49:28;;;;;;;13.70;11.02;;;;;;;-145.71;100.00;60690.53;5031425;28;20059;-81
2021/08/07 07:51:53;;;;;;;17.80;13.10;;;;;;;-145.71;100.00;60690.53;5013312;28;20037;-81
2021/08/07 07:54:19;;;;;;;11.70;10.38;;;;;;;-145.71;100.00;60690.53;5030801;28;20026;-81
2021/08/07 07:56:44;;;;;;;19.58;10.45;;;;;;;-145.71;100.00;60690.53;5012978;28;20426;-81
2021/08/07 07:59:09;;;;;;;14.18;11.85;;;;;;;-145.71;100.00;60690.53;5034834;28;20083;-81
2021/08/07 08:01:34;;;;;;;14.35;11.35;;;;;;;-145.71;100.00;60690.53;5033626;28;20021;-82
2021/08/07 08:04:00;;;;;;;12.93;10.10;;;;;;;-145.71;100.00;60690.53;5032407;28;20409;-81
2021/08/07 08:06:25;;;;;;;16.13;12.77;;;;;;;-145.71;100.00;60690.53;5032452;28;20029;-81
2021/08/07 08:08:51;;;;;;;17.38;12.60;;;;;;;-145.71;100.00;60690.53;5031150;28;20039;-81
2021/08/07 08:11:16;;;;;;;14.07;10.68;;;;;;;-145.71;100.00;60690.53;5013800;28;20440;-81
2021/08/07 08:13:41;;;;;;;15.98;12.63;;;;;;;-145.71;100.00;60690.53;5031565;28;20036;-81
2021/08/07 08:16:07;;;;;;;19.25;11.75;;;;;;;-145.71;100.00;60690.53;5030498;28;20032;-81
2021/08/07 08:18:33;;;;;;;17.95;13.48;;;;;;;-145.71;100.00;60690.53;5031532;28;20025;-81
2021/08/07 08:20:59;;;;;;;16.25;13.25;;;;;;;-145.71;100.00;60690.53;5015771;28;20340;-82
2021/08/07 08:23:25;;;;;;;15.07;11.77;;;;;;;-145.71;100.00;60690.53;5032346;28;20072;-81
2021/08/07 08:25:50;;;;;;;13.93;9.60;;;;;;;-145.71;100.00;60690.53;5013855;28;20440;-82
2021/08/07 08:28:16;;;;;;;11.98;10.30;;;;;;;-145.71;100.00;60690.53;5031032;28;20465;-81
2021/08/07 08:30:42;;;;;;;14.57;10.15;;;;;;;-145.71;100.00;60690.53;5012832;28;20037;-81
2021/08/07 08:33:07;;;;;;;13.57;12.27;;;;;;;-145.71;100.00;60690.53;5029931;28;20018;-80
2021/08/07 08:35:33;;;;;;;15.98;11.68;;;;;;;-145.71;100.00;60690.53;5031840;28;20116;-81
2021/08/07 08:37:58;;;;;;;18.10;10.80;;;;;;;-145.71;100.00;60690.53;5014053;28;20388;-81
2021/08/07 08:40:23;;;;;;;14.05;10.57;;;;;;;-145.71;100.00;60690.53;5016091;28;20051;-81
2021/08/07 08:42:51;;;;;;;10.88;9.75;;;;;;;-145.71;100.00;60690.53;5015046;28;20041;-81
2021/08/07 08:45:16;;;;;;;21.33;10.20;;;;;;;-145.71;100.00;60690.53;5014046;28;20036;-81
2021/08/07 08:47:42;;;;;;;10.27;9.27;;;;;;;-145.71;100.00;60690.53;5015918;28;20440;-81
2021/08/07 08:50:08;;;;;;;11.32;10.15;;;;;;;-145.71;100.00;60690.53;5035047;28;20151;-81
2021/08/07 08:52:37;;;;;;;12.70;9.77;;;;;;;-145.71;100.00;60690.53;5016161;28;20040;-81
2021/08/07 08:55:03;;;;;;;11.55;8.10;;;;;;;-145.71;100.00;60690.53;5016576;28;20056;-81
2021/08/07 08:57:29;;;;;;;11.95;7.97;;;;;;;-145.71;100.00;60690.53;5036724;28;20037;-80
2021/08/07 08:59:55;;;;;;;11.23;7.80;;;;;;;-145.71;100.00;60690.53;5036673;28;20029;-81
2021/08/07 09:02:20;;;;;;;12.52;9.20;;;;;;;-145.71;100.00;60690.53;5036100;28;20100;-81
2021/08/07 09:04:46;;;;;;;17.75;10.40;;;;;;;-145.71;100.00;60690.53;5036087;28;20033;-82
2021/08/07 09:07:14;;;;;;;11.73;8.75;;;;;;;-145.71;100.00;60690.53;5017332;28;20075;-81
2021/08/07 09:09:52;;;;;;;11.60;8.25;;;;;;;-145.71;100.00;60690.53;5034558;28;20054;-81
2021/08/07 09:12:23;;;;;;;12.05;7.80;;;;;;;-145.71;100.00;60690.53;5034542;28;20028;-81
2021/08/07 09:14:50;;;;;;;13.77;7.13;;;;;;;-145.71;100.00;60690.53;5034151;28;20037;-81
2021/08/07 09:17:29;;;;;;;15.98;8.32;;;;;;;-145.71;100.00;60690.53;5034177;28;20045;-81
2021/08/07 09:19:56;;;;;;;10.15;7.15;;;;;;;-145.71;100.00;60690.53;5016672;28;20394;-82
2021/08/07 09:22:25;;;;;;;9.23;6.78;;;;;;;-145.71;100.00;60690.53;5035586;28;20025;-82
2021/08/07 09:25:13;;;;;;;9.07;7.15;;;;;;;-145.71;100.00;60690.53;5017601;28;20500;-82
2021/08/07 09:27:53;;;;;;;11.18;6.65;;;;;;;-145.71;100.00;60690.53;5035027;28;20033;-83
2021/08/07 09:30:23;;;;;;;10.07;6.28;;;;;;;-145.71;100.00;60690.53;5034480;28;20037;-83
2021/08/07 09:32:55;;;;;;;11.35;6.35;;;;;;;-145.71;100.00;60690.53;5033730;28;20500;-82
2021/08/07 09:35:32;;;;;;;9.73;5.47;;;;;;;-145.71;100.00;60690.53;5016218;28;20500;-83
2021/08/07 09:38:03;;;;;;;9.73;5.70;;;;;;;-145.71;100.00;60690.53;5015714;28;20029;-82
2021/08/07 09:40:59;;;;;;;9.18;5.63;;;;;;;-145.71;100.00;60690.53;5034698;28;20112;-83
2021/08/07 09:43:45;;;;;;;12.52;4.93;;;;;;;-145.71;100.00;60690.53;5016174;28;20108;-82
2021/08/07 09:46:30;;;;;;;12.95;4.90;;;;;;;-145.71;100.00;60690.53;5015960;28;20033;-83
2021/08/07 09:48:58;;;;;;;9.57;5.20;;;;;;;-145.71;100.00;60690.53;5026517;28;20097;-83
2021/08/07 09:51:26;;;;;;;6.95;4.43;;;;;;;-145.71;100.00;60690.53;5016043;28;20064;-83
2021/08/07 09:54:08;;;;;;;9.65;4.93;;;;;;;-145.71;100.00;60690.53;5015776;28;20054;-82
2021/08/07 09:57:00;;;;;;;9.48;4.25;;;;;;;-145.71;100.00;60690.53;5033901;28;20513;-82
2021/08/07 09:59:29;;;;;;;7.60;3.97;;;;;;;-145.71;100.00;60690.53;5027625;28;20045;-81
2021/08/07 10:01:56;;;;;;;7.30;3.85;;;;;;;-145.71;100.00;60690.53;5032741;28;20022;-82
2021/08/07 10:04:22;;;;;;;5.03;3.10;;;;;;;-145.71;100.00;60690.53;5032500;28;20033;-82
2021/08/07 10:06:49;;;;;;;5.70;2.97;;;;;;;-145.71;100.00;60690.53;5031878;28;20064;-82
2021/08/07 10:09:31;;;;;;;6.20;2.60;;;;;;;-145.71;100.00;60690.53;5034398;28;20496;-82
2021/08/07 10:12:06;;;;;;;7.90;2.72;;;;;;;-145.71;100.00;60690.53;5035673;28;20033;-83
2021/08/07 10:14:33;;;;;;;3.08;2.47;;;;;;;-145.71;100.00;60690.53;5016942;28;20435;-82
2021/08/07 10:17:00;;;;;;;4.05;2.20;;;;;;;-145.71;100.00;60690.53;5033949;28;21463;-82
2021/08/07 10:19:26;;;;;;;5.03;2.58;;;;;;;-145.71;100.00;60690.53;5015475;28;20041;-82
2021/08/07 10:21:51;;;;;;;5.25;2.50;;;;;;;-145.71;100.00;60690.53;5033344;28;20025;-82
2021/08/07 10:24:19;;;;;;;3.05;2.47;;;;;;;-145.71;100.00;60690.53;5032900;28;20081;-82
2021/08/07 10:26:46;;;;;;;5.00;2.10;;;;;;;-145.71;100.00;60690.53;5014483;28;20033;-83
2021/08/07 10:29:13;;;;;;;4.78;1.85;;;;;;;-145.71;100.00;60690.53;5033547;28;20762;-82
2021/08/07 10:31:39;;;;;;;4.57;2.15;;;;;;;-145.71;100.00;60690.53;5033063;28;20029;-82
2021/08/07 10:34:08;;;;;;;4.93;1.67;;;;;;;-145.71;100.00;60690.53;5032542;28;20034;-82
2021/08/07 10:36:34;;;;;;;4.35;1.90;;;;;;;-145.71;100.00;60690.53;5033688;28;20025;-83
2021/08/07 10:39:02;;;;;;;5.28;1.75;;;;;;;-145.71;100.00;60690.53;5018482;28;20032;-82
2021/08/07 10:41:29;;;;;;;5.60;1.50;;;;;;;-145.71;100.00;60690.53;5035206;28;20059;-83
2021/08/07 10:43:56;;;;;;;2.97;2.38;;;;;;;-145.71;100.00;60690.53;5033832;28;20041;-82
2021/08/07 10:46:22;;;;;;;3.63;1.67;;;;;;;-145.71;100.00;60690.53;5034104;28;20413;-82
2021/08/07 10:48:50;;;;;;;5.32;1.60;;;;;;;-145.71;100.00;60690.53;5032874;28;20034;-81
2021/08/07 10:51:18;;;;;;;2.10;1.50;;;;;;;-145.71;100.00;60690.53;5034872;28;20040;-83
2021/08/07 10:53:48;;;;;;;3.30;1.70;;;;;;;-145.71;100.00;60690.53;5015905;28;20757;-82
2021/08/07 10:56:28;;;;;;;4.47;2.13;;;;;;;-145.71;100.00;60690.53;5032740;28;20389;-83